Time;durP1;ratioP1;P1;durP2;ratioP2;P2;SDS_P1;SDS_P2;PMS_P1;PMS_P2;Temp;Humidity;BMP_temperature;BMP_pressure;BME280_temperature;BME280_humidity;BME280_pressure;Samples;Min_cycle;Max_cycle;Signal;HPM_P1;HPM_P2
2022/09/02 00:02:16;;;;;;;2.47;1.00;;;;;;;;;;5055359;28;20312;-77
2022/09/02 00:04:45;;;;;;;1.17;0.80;;;;;;;;;;5054578;28;20273;-78
2022/09/02 00:07:13;;;;;;;1.73;0.87;;;;;;;;;;5054793;28;20206;-77
2022/09/02 00:09:42;;;;;;;1.77;1.27;;;;;;;;;;5054566;28;20226;-77
2022/09/02 00:12:11;;;;;;;1.70;1.07;;;;;;;;;;5055355;28;20211;-77
2022/09/02 00:14:40;;;;;;;1.67;1.03;;;;;;;;;;5054679;28;20196;-77
2022/09/02 00:17:10;;;;;;;1.00;0.90;;;;;;;;;;5054937;28;20718;-77
2022/09/02 00:19:38;;;;;;;2.33;1.10;;;;;;;;;;5054546;28;20223;-77
2022/09/02 00:22:06;;;;;;;1.73;0.93;;;;;;;;;;5054485;28;20207;-77
2022/09/02 00:24:35;;;;;;;1.70;0.83;;;;;;;;;;5054497;28;20641;-77
2022/09/02 00:27:04;;;;;;;2.00;1.00;;;;;;;;;;5054926;28;20570;-77
2022/09/02 00:29:32;;;;;;;0.97;0.90;;;;;;;;;;5054300;28;20199;-76
2022/09/02 00:32:01;;;;;;;1.50;1.00;;;;;;;;;;5054270;28;20205;-77
2022/09/02 00:34:31;;;;;;;1.87;1.00;;;;;;;;;;5053809;28;20276;-77
2022/09/02 00:37:00;;;;;;;1.30;0.90;;;;;;;;;;5054471;28;20253;-77
2022/09/02 00:39:28;;;;;;;1.30;1.00;;;;;;;;;;5054520;28;20619;-78
2022/09/02 00:41:57;;;;;;;1.53;1.00;;;;;;;;;;5054309;28;20635;-77
2022/09/02 00:44:25;;;;;;;2.07;1.30;;;;;;;;;;5054447;28;20655;-77
2022/09/02 00:46:54;;;;;;;1.20;1.10;;;;;;;;;;5054594;28;20261;-77
2022/09/02 00:49:24;;;;;;;2.23;1.30;;;;;;;;;;5054039;28;20214;-77
2022/09/02 00:51:56;;;;;;;1.40;1.10;;;;;;;;;;5054526;28;20625;-77
2022/09/02 00:54:26;;;;;;;1.53;1.10;;;;;;;;;;5053977;28;20309;-77
2022/09/02 00:56:56;;;;;;;2.83;1.17;;;;;;;;;;5054031;28;20211;-77
2022/09/02 00:59:27;;;;;;;1.10;1.00;;;;;;;;;;5054731;28;20214;-77
2022/09/02 01:01:55;;;;;;;2.67;1.00;;;;;;;;;;5074244;28;20557;-77
2022/09/02 01:04:24;;;;;;;2.03;1.20;;;;;;;;;;5074048;28;20226;-77
2022/09/02 01:06:54;;;;;;;1.07;1.00;;;;;;;;;;5073913;28;20218;-77
2022/09/02 01:09:23;;;;;;;5.40;1.20;;;;;;;;;;5074248;28;20194;-77
2022/09/02 01:11:53;;;;;;;1.60;1.20;;;;;;;;;;5073808;28;20203;-77
2022/09/02 01:14:23;;;;;;;1.17;1.07;;;;;;;;;;5074029;28;20191;-77
2022/09/02 01:16:58;;;;;;;3.70;1.10;;;;;;;;;;5068704;28;20203;-77
2022/09/02 01:19:27;;;;;;;4.93;1.00;;;;;;;;;;5073253;28;20199;-77
2022/09/02 01:21:58;;;;;;;1.53;0.90;;;;;;;;;;5073482;28;20209;-77
2022/09/02 01:24:27;;;;;;;1.73;1.20;;;;;;;;;;5073566;28;20186;-77
2022/09/02 01:26:58;;;;;;;4.63;1.20;;;;;;;;;;5071431;28;20222;-77
2022/09/02 01:29:27;;;;;;;2.47;1.00;;;;;;;;;;5053371;28;20188;-77
2022/09/02 01:31:55;;;;;;;2.37;1.10;;;;;;;;;;5053797;28;20595;-77
2022/09/02 01:34:24;;;;;;;1.20;1.10;;;;;;;;;;5053277;28;20206;-77
2022/09/02 01:36:52;;;;;;;1.03;1.00;;;;;;;;;;5053353;28;20203;-77
2022/09/02 01:39:22;;;;;;;3.20;1.20;;;;;;;;;;5053711;28;20281;-77
2022/09/02 01:41:50;;;;;;;3.80;1.20;;;;;;;;;;5064703;28;20202;-77
2022/09/02 01:44:19;;;;;;;2.17;1.03;;;;;;;;;;5074960;28;20701;-77
2022/09/02 01:46:47;;;;;;;1.40;1.30;;;;;;;;;;5077508;28;20215;-77
2022/09/02 01:49:16;;;;;;;1.10;1.00;;;;;;;;;;5076972;28;20206;-76
2022/09/02 01:51:44;;;;;;;1.10;1.00;;;;;;;;;;5077307;28;20664;-77
2022/09/02 01:54:13;;;;;;;2.43;1.07;;;;;;;;;;5077102;28;20630;-77
2022/09/02 01:56:44;;;;;;;1.33;1.10;;;;;;;;;;5077624;28;20213;-77
2022/09/02 01:59:16;;;;;;;2.73;1.00;;;;;;;;;;5077250;28;20659;-77
2022/09/02 02:01:45;;;;;;;1.47;1.13;;;;;;;;;;5077326;28;20256;-77
2022/09/02 02:04:14;;;;;;;1.53;1.37;;;;;;;;;;5076585;28;20207;-77
2022/09/02 02:06:44;;;;;;;2.50;1.20;;;;;;;;;;5058280;28;20226;-77
2022/09/02 02:09:12;;;;;;;2.37;1.20;;;;;;;;;;5056976;28;20207;-77
2022/09/02 02:11:41;;;;;;;2.23;1.13;;;;;;;;;;5057036;28;20206;-77
2022/09/02 02:14:11;;;;;;;2.30;1.07;;;;;;;;;;5057135;28;20214;-77
2022/09/02 02:16:39;;;;;;;2.27;1.30;;;;;;;;;;5056635;28;20203;-77
2022/09/02 02:19:08;;;;;;;2.57;1.40;;;;;;;;;;5057449;28;20207;-77
2022/09/02 02:21:36;;;;;;;1.33;1.20;;;;;;;;;;5056845;28;20688;-77
2022/09/02 02:24:06;;;;;;;1.70;1.20;;;;;;;;;;5056544;28;20623;-77
2022/09/02 02:26:35;;;;;;;1.27;1.17;;;;;;;;;;5057126;28;20225;-77
2022/09/02 02:29:04;;;;;;;1.80;1.10;;;;;;;;;;5067051;28;20202;-77
2022/09/02 02:31:34;;;;;;;1.37;1.27;;;;;;;;;;5076701;28;20218;-77
2022/09/02 02:34:03;;;;;;;2.03;1.20;;;;;;;;;;5076409;28;20214;-77
2022/09/02 02:36:32;;;;;;;1.33;1.10;;;;;;;;;;5076274;28;20199;-77
2022/09/02 02:39:01;;;;;;;2.00;1.10;;;;;;;;;;5076347;28;20214;-77
2022/09/02 02:41:30;;;;;;;2.30;1.20;;;;;;;;;;5076409;28;20223;-78
2022/09/02 02:43:59;;;;;;;1.90;1.20;;;;;;;;;;5076553;28;20211;-77
2022/09/02 02:46:29;;;;;;;2.00;1.40;;;;;;;;;;5076380;28;20730;-77
2022/09/02 02:49:00;;;;;;;1.13;1.03;;;;;;;;;;5076128;28;20182;-77
2022/09/02 02:51:29;;;;;;;1.30;1.20;;;;;;;;;;5076609;28;20234;-77
2022/09/02 02:53:57;;;;;;;3.57;1.33;;;;;;;;;;5076285;28;20207;-76
2022/09/02 02:56:27;;;;;;;2.40;1.50;;;;;;;;;;5066717;28;20245;-77
2022/09/02 02:58:55;;;;;;;2.93;1.27;;;;;;;;;;5058197;28;20245;-77
2022/09/02 03:01:24;;;;;;;2.70;1.27;;;;;;;;;;5075931;28;20241;-76
2022/09/02 03:03:53;;;;;;;3.80;1.37;;;;;;;;;;5076296;28;20551;-77
2022/09/02 03:06:23;;;;;;;2.17;1.20;;;;;;;;;;5076137;28;20578;-77
2022/09/02 03:08:55;;;;;;;4.53;1.80;;;;;;;;;;5060706;28;20674;-77
2022/09/02 03:11:26;;;;;;;1.47;1.30;;;;;;;;;;5063323;28;20214;-76
2022/09/02 03:13:55;;;;;;;4.07;1.20;;;;;;;;;;5075894;28;20191;-76
2022/09/02 03:16:23;;;;;;;1.20;1.10;;;;;;;;;;5076168;28;20573;-77
2022/09/02 03:18:52;;;;;;;1.53;1.30;;;;;;;;;;5075912;28;20268;-77
2022/09/02 03:21:20;;;;;;;1.27;1.20;;;;;;;;;;5075766;28;20223;-77
2022/09/02 03:23:50;;;;;;;1.77;1.50;;;;;;;;;;5075998;28;20619;-77
2022/09/02 03:26:20;;;;;;;3.07;1.50;;;;;;;;;;5075655;28;20230;-78
2022/09/02 03:28:50;;;;;;;1.53;1.20;;;;;;;;;;5076102;28;20194;-77
2022/09/02 03:31:20;;;;;;;2.27;1.50;;;;;;;;;;5076004;28;20222;-77
2022/09/02 03:33:48;;;;;;;1.47;1.37;;;;;;;;;;5075995;28;20252;-77
2022/09/02 03:36:21;;;;;;;1.70;1.57;;;;;;;;;;5075486;28;20617;-77
2022/09/02 03:38:51;;;;;;;1.90;1.40;;;;;;;;;;5075729;28;20183;-77
2022/09/02 03:41:20;;;;;;;1.57;1.27;;;;;;;;;;5075746;28;20222;-77
2022/09/02 03:43:48;;;;;;;2.23;1.40;;;;;;;;;;5075409;28;20204;-77
2022/09/02 03:46:17;;;;;;;3.90;1.40;;;;;;;;;;5070102;28;20214;-77
2022/09/02 03:48:45;;;;;;;2.20;1.47;;;;;;;;;;5055036;28;20210;-77
2022/09/02 03:51:14;;;;;;;1.47;1.37;;;;;;;;;;5055033;28;20226;-77
2022/09/02 03:53:42;;;;;;;3.03;1.60;;;;;;;;;;5055143;28;20566;-77
2022/09/02 03:56:14;;;;;;;1.40;1.30;;;;;;;;;;5054685;28;20210;-77
2022/09/02 03:58:43;;;;;;;1.30;1.20;;;;;;;;;;5054793;28;20195;-77
2022/09/02 04:01:14;;;;;;;2.60;1.50;;;;;;;;;;5054928;28;20227;-77
2022/09/02 04:03:43;;;;;;;2.20;1.27;;;;;;;;;;5054833;28;20187;-77
2022/09/02 04:06:12;;;;;;;1.53;1.43;;;;;;;;;;5054668;28;20203;-77
2022/09/02 04:08:41;;;;;;;1.60;1.50;;;;;;;;;;5054510;28;20215;-77
2022/09/02 04:11:10;;;;;;;3.57;1.63;;;;;;;;;;5054548;28;20704;-77
2022/09/02 04:13:40;;;;;;;3.33;1.47;;;;;;;;;;5054583;28;20250;-77
2022/09/02 04:16:09;;;;;;;3.00;1.50;;;;;;;;;;5053810;28;20207;-77
2022/09/02 04:18:38;;;;;;;1.63;1.43;;;;;;;;;;5054313;28;20203;-77
2022/09/02 04:21:07;;;;;;;1.60;1.50;;;;;;;;;;5054619;28;20223;-77
2022/09/02 04:23:35;;;;;;;1.97;1.53;;;;;;;;;;5054326;28;20207;-77
2022/09/02 04:26:05;;;;;;;3.53;1.63;;;;;;;;;;5054331;28;20211;-77
2022/09/02 04:28:33;;;;;;;2.53;1.67;;;;;;;;;;5054294;28;20695;-77
2022/09/02 04:31:05;;;;;;;2.30;1.50;;;;;;;;;;5054126;28;20219;-77
2022/09/02 04:33:34;;;;;;;1.63;1.53;;;;;;;;;;5065399;28;20194;-76
2022/09/02 04:36:05;;;;;;;1.87;1.50;;;;;;;;;;5056190;28;20206;-77
2022/09/02 04:38:34;;;;;;;3.70;1.70;;;;;;;;;;5054301;28;20237;-77
2022/09/02 04:41:06;;;;;;;1.90;1.40;;;;;;;;;;5053634;28;20227;-77
2022/09/02 04:43:35;;;;;;;1.67;1.47;;;;;;;;;;5053921;28;20199;-77
2022/09/02 04:46:06;;;;;;;2.67;1.70;;;;;;;;;;5054122;28;20210;-77
2022/09/02 04:48:36;;;;;;;2.10;1.43;;;;;;;;;;5053778;28;20219;-77
2022/09/02 04:51:05;;;;;;;1.83;1.63;;;;;;;;;;5057548;28;20218;-77
2022/09/02 04:53:34;;;;;;;1.60;1.50;;;;;;;;;;5074012;28;20202;-77
2022/09/02 04:56:04;;;;;;;2.20;1.70;;;;;;;;;;5074063;28;20238;-77
2022/09/02 04:58:32;;;;;;;2.10;1.90;;;;;;;;;;5073458;28;20201;-77
2022/09/02 05:01:05;;;;;;;1.97;1.80;;;;;;;;;;5071788;28;20228;-76
2022/09/02 05:03:35;;;;;;;3.23;1.73;;;;;;;;;;5073893;28;20194;-77
2022/09/02 05:06:06;;;;;;;3.93;1.73;;;;;;;;;;5073599;28;20206;-77
2022/09/02 05:08:35;;;;;;;2.50;1.70;;;;;;;;;;5073733;28;20222;-77
2022/09/02 05:13:22;;;;;;;3.80;1.73;;;;;;;;;;5089588;28;21135;-77
2022/09/02 05:15:51;;;;;;;4.57;1.87;;;;;;;;;;5091672;28;20280;-77
2022/09/02 05:18:19;;;;;;;2.10;1.90;;;;;;;;;;5090902;28;20198;-77
2022/09/02 05:20:48;;;;;;;3.30;1.70;;;;;;;;;;5078337;28;20252;-77
2022/09/02 05:23:16;;;;;;;3.17;1.70;;;;;;;;;;5070907;28;20229;-77
2022/09/02 05:25:45;;;;;;;2.07;1.87;;;;;;;;;;5070510;28;20217;-77
2022/09/02 05:28:14;;;;;;;2.70;1.80;;;;;;;;;;5070039;28;20214;-77
2022/09/02 05:30:44;;;;;;;2.10;1.90;;;;;;;;;;5070139;28;20706;-76
2022/09/02 05:33:12;;;;;;;2.47;1.80;;;;;;;;;;5070141;28;20226;-77
2022/09/02 05:35:42;;;;;;;4.00;2.10;;;;;;;;;;5070457;28;20363;-77
2022/09/02 05:38:17;;;;;;;2.00;1.80;;;;;;;;;;5070240;28;20197;-77
2022/09/02 05:40:45;;;;;;;2.83;1.90;;;;;;;;;;5070360;28;20272;-76
2022/09/02 05:43:14;;;;;;;3.33;2.00;;;;;;;;;;5070501;28;20281;-77
2022/09/02 05:45:44;;;;;;;3.83;1.83;;;;;;;;;;5070563;28;20206;-77
2022/09/02 05:50:55;;;;;;;2.77;1.70;;;;;;;;;;5069907;28;20223;-77
2022/09/02 05:53:26;;;;;;;2.43;1.60;;;;;;;;;;5070455;28;20245;-77
2022/09/02 05:55:55;;;;;;;2.97;1.80;;;;;;;;;;5070418;28;20206;-77
2022/09/02 05:58:23;;;;;;;3.93;1.80;;;;;;;;;;5070423;28;20203;-77
2022/09/02 06:00:53;;;;;;;2.30;1.60;;;;;;;;;;5070455;28;20227;-77
2022/09/02 06:03:21;;;;;;;2.20;1.90;;;;;;;;;;5070406;28;20214;-77
2022/09/02 06:05:54;;;;;;;2.17;1.70;;;;;;;;;;5070245;28;20733;-77
2022/09/02 06:08:23;;;;;;;4.87;1.63;;;;;;;;;;5070111;28;20309;-77
2022/09/02 06:10:52;;;;;;;1.83;1.73;;;;;;;;;;5069619;28;20234;-77
2022/09/02 06:13:21;;;;;;;2.43;1.77;;;;;;;;;;5069956;28;20686;-77
2022/09/02 06:15:50;;;;;;;3.20;1.97;;;;;;;;;;5069867;28;20663;-76
2022/09/02 06:18:20;;;;;;;2.10;1.90;;;;;;;;;;5069971;28;20210;-77
2022/09/02 06:20:50;;;;;;;2.67;1.90;;;;;;;;;;5069569;28;20235;-77
2022/09/02 06:23:18;;;;;;;2.37;1.60;;;;;;;;;;5064333;28;20199;-77
2022/09/02 06:25:48;;;;;;;3.23;1.93;;;;;;;;;;5056743;28;20203;-77
2022/09/02 06:28:16;;;;;;;2.03;1.80;;;;;;;;;;5056579;28;20699;-77
2022/09/02 06:30:46;;;;;;;2.40;1.70;;;;;;;;;;5056695;28;20715;-77
2022/09/02 06:33:14;;;;;;;2.87;1.83;;;;;;;;;;5056375;28;20570;-78
2022/09/02 06:35:45;;;;;;;2.10;1.87;;;;;;;;;;5056215;28;20203;-76
2022/09/02 06:38:14;;;;;;;2.33;1.57;;;;;;;;;;5056258;28;20531;-77
2022/09/02 06:40:50;;;;;;;2.57;1.90;;;;;;;;;;5056106;28;20233;-77
2022/09/02 06:43:19;;;;;;;2.83;1.73;;;;;;;;;;5056716;28;20187;-77
2022/09/02 06:45:47;;;;;;;2.90;1.90;;;;;;;;;;5056748;28;20268;-77
2022/09/02 06:48:16;;;;;;;3.67;1.90;;;;;;;;;;5056056;28;20297;-77
2022/09/02 06:50:46;;;;;;;2.00;1.60;;;;;;;;;;5055855;28;20702;-77
2022/09/02 06:53:16;;;;;;;3.63;1.60;;;;;;;;;;5056199;28;20623;-77
2022/09/02 06:55:45;;;;;;;2.77;1.70;;;;;;;;;;5056544;28;20203;-77
2022/09/02 06:58:14;;;;;;;2.27;1.60;;;;;;;;;;5056299;28;20218;-78
2022/09/02 07:00:43;;;;;;;3.30;1.97;;;;;;;;;;5056527;28;20231;-77
2022/09/02 07:06:01;;;;;;;1.63;1.53;;;;;;;;;;5056420;28;20187;-77
2022/09/02 07:08:29;;;;;;;2.33;1.70;;;;;;;;;;5056605;28;20211;-77
2022/09/02 07:10:58;;;;;;;2.30;1.53;;;;;;;;;;5056501;28;20284;-77
2022/09/02 07:13:26;;;;;;;3.33;1.70;;;;;;;;;;5056073;28;20211;-78
2022/09/02 07:15:54;;;;;;;3.17;1.53;;;;;;;;;;5056821;28;20203;-78
2022/09/02 07:18:23;;;;;;;2.63;1.67;;;;;;;;;;5056263;28;20211;-77
2022/09/02 07:20:52;;;;;;;1.63;1.50;;;;;;;;;;5056194;28;20288;-78
2022/09/02 07:23:22;;;;;;;4.23;1.67;;;;;;;;;;5052186;28;20204;-78
2022/09/02 07:25:50;;;;;;;2.40;1.57;;;;;;;;;;5035187;28;20200;-77
2022/09/02 07:28:19;;;;;;;2.63;1.50;;;;;;;;;;5035240;28;20664;-75
2022/09/02 07:30:47;;;;;;;3.00;1.50;;;;;;;;;;5035396;28;20314;-75
2022/09/02 07:33:16;;;;;;;1.90;1.50;;;;;;;;;;5034861;28;20585;-78
2022/09/02 07:35:45;;;;;;;1.63;1.50;;;;;;;;;;5034071;28;20214;-76
2022/09/02 07:38:14;;;;;;;4.35;1.70;;;;;;;;;;5048588;28;20195;-77
2022/09/02 07:40:45;;;;;;;2.97;1.40;;;;;;;;;;5055337;28;20723;-77
2022/09/02 07:43:14;;;;;;;4.25;1.80;;;;;;;;;;5054803;28;20199;-76
2022/09/02 07:45:43;;;;;;;2.20;1.60;;;;;;;;;;5054290;28;20242;-75
2022/09/02 07:48:14;;;;;;;1.88;1.42;;;;;;;;;;5054663;28;20207;-77
2022/09/02 07:50:43;;;;;;;2.40;1.40;;;;;;;;;;5054306;28;20227;-77
2022/09/02 07:53:12;;;;;;;2.40;1.60;;;;;;;;;;5054650;28;20618;-77
2022/09/02 07:55:41;;;;;;;1.63;1.52;;;;;;;;;;5054404;28;20203;-75
2022/09/02 07:58:11;;;;;;;3.15;1.70;;;;;;;;;;5054409;28;20713;-75
2022/09/02 08:00:43;;;;;;;7.28;2.00;;;;;;;;;;5054433;28;20239;-77
2022/09/02 08:03:12;;;;;;;1.60;1.50;;;;;;;;;;5054839;28;20208;-77
2022/09/02 08:05:40;;;;;;;2.50;1.40;;;;;;;;;;5054053;28;20207;-76
2022/09/02 08:08:09;;;;;;;3.55;1.50;;;;;;;;;;5053948;28;20215;-76
2022/09/02 08:10:38;;;;;;;2.17;1.60;;;;;;;;;;5053733;28;20223;-75
2022/09/02 08:13:06;;;;;;;2.80;1.45;;;;;;;;;;5053614;28;20595;-75
2022/09/02 08:15:36;;;;;;;3.60;1.50;;;;;;;;;;5054065;28;20203;-77
2022/09/02 08:18:05;;;;;;;5.22;1.40;;;;;;;;;;5054265;28;20207;-77
2022/09/02 08:20:36;;;;;;;3.33;1.45;;;;;;;;;;5054775;28;20575;-77
2022/09/02 08:23:06;;;;;;;1.67;1.55;;;;;;;;;;5054667;28;20207;-77
2022/09/02 08:25:46;;;;;;;2.20;1.50;;;;;;;;;;5054190;28;20191;-75
2022/09/02 08:28:14;;;;;;;3.25;1.40;;;;;;;;;;5053909;28;20225;-75
2022/09/02 08:30:44;;;;;;;4.10;1.50;;;;;;;;;;5053777;28;20594;-75
2022/09/02 08:33:13;;;;;;;2.33;1.50;;;;;;;;;;5053911;28;20226;-75
2022/09/02 08:35:42;;;;;;;3.00;1.48;;;;;;;;;;5053709;28;20258;-75
2022/09/02 08:38:10;;;;;;;2.90;1.30;;;;;;;;;;5053666;28;20676;-75
2022/09/02 08:40:40;;;;;;;2.50;1.40;;;;;;;;;;5053336;28;20227;-75
2022/09/02 08:43:16;;;;;;;3.67;1.45;;;;;;;;;;5053394;28;20195;-75
2022/09/02 08:45:47;;;;;;;2.90;1.55;;;;;;;;;;5053200;28;20183;-75
2022/09/02 08:48:20;;;;;;;3.17;1.30;;;;;;;;;;5053516;28;20187;-75
2022/09/02 08:50:51;;;;;;;2.58;1.50;;;;;;;;;;5053141;28;20219;-75
2022/09/02 08:53:23;;;;;;;2.22;1.33;;;;;;;;;;5053442;28;20211;-75
2022/09/02 08:55:54;;;;;;;3.20;1.33;;;;;;;;;;5053526;28;20215;-76
2022/09/02 08:58:23;;;;;;;3.58;1.40;;;;;;;;;;5053451;28;20192;-74
2022/09/02 09:00:59;;;;;;;4.22;1.75;;;;;;;;;;5053263;28;20647;-75
2022/09/02 09:03:29;;;;;;;3.30;1.50;;;;;;;;;;5053134;28;20188;-76
2022/09/02 09:06:01;;;;;;;3.55;1.48;;;;;;;;;;5052969;28;20207;-76
2022/09/02 09:08:33;;;;;;;2.45;1.23;;;;;;;;;;5053350;28;20564;-76
2022/09/02 09:11:03;;;;;;;4.30;1.40;;;;;;;;;;5052852;28;20227;-75
2022/09/02 09:13:39;;;;;;;3.92;1.60;;;;;;;;;;5053206;28;20222;-76
2022/09/02 09:16:14;;;;;;;3.50;1.40;;;;;;;;;;5052981;28;20213;-76
2022/09/02 09:18:46;;;;;;;2.92;1.40;;;;;;;;;;5053041;28;20197;-76
2022/09/02 09:21:16;;;;;;;3.25;1.27;;;;;;;;;;5053157;28;20227;-76
2022/09/02 09:23:45;;;;;;;1.88;1.40;;;;;;;;;;5053071;28;20255;-76
2022/09/02 09:26:17;;;;;;;3.75;1.20;;;;;;;;;;5053123;28;20203;-76
2022/09/02 09:28:46;;;;;;;2.40;1.30;;;;;;;;;;5053173;28;20606;-77
2022/09/02 09:31:18;;;;;;;8.02;1.50;;;;;;;;;;5052995;28;20231;-76
2022/09/02 09:33:56;;;;;;;2.83;1.50;;;;;;;;;;5052780;28;20207;-75
2022/09/02 09:36:40;;;;;;;1.23;1.13;;;;;;;;;;5053325;28;20587;-75
2022/09/02 09:39:17;;;;;;;1.98;1.20;;;;;;;;;;5052054;28;20211;-75
2022/09/02 09:41:46;;;;;;;2.78;1.38;;;;;;;;;;5053044;28;20194;-76
2022/09/02 09:44:29;;;;;;;2.40;1.20;;;;;;;;;;5036727;28;20568;-75
2022/09/02 09:47:03;;;;;;;2.95;1.60;;;;;;;;;;5033122;28;20194;-76
2022/09/02 09:49:32;;;;;;;2.75;1.55;;;;;;;;;;5032947;28;20184;-74
2022/09/02 09:52:01;;;;;;;3.05;1.23;;;;;;;;;;5033043;28;20683;-75
2022/09/02 09:54:29;;;;;;;4.15;1.40;;;;;;;;;;5032966;28;20692;-76
2022/09/02 09:57:13;;;;;;;1.75;1.40;;;;;;;;;;5032994;28;20207;-75
2022/09/02 09:59:44;;;;;;;3.20;1.38;;;;;;;;;;5047708;28;20314;-75
2022/09/02 10:02:20;;;;;;;2.75;1.20;;;;;;;;;;5056558;28;20203;-76
2022/09/02 10:04:49;;;;;;;1.95;1.40;;;;;;;;;;5056342;28;20179;-76
2022/09/02 10:07:34;;;;;;;4.75;1.38;;;;;;;;;;5056480;28;20616;-75
2022/09/02 10:10:10;;;;;;;1.15;1.05;;;;;;;;;;5056436;28;20304;-76
2022/09/02 10:12:39;;;;;;;2.53;1.30;;;;;;;;;;5056091;28;20555;-76
2022/09/02 10:15:08;;;;;;;2.03;1.42;;;;;;;;;;5056338;28;20227;-75
2022/09/02 10:17:44;;;;;;;2.85;1.30;;;;;;;;;;5056389;28;20187;-75
2022/09/02 10:20:16;;;;;;;1.27;1.17;;;;;;;;;;5056304;28;20238;-78
2022/09/02 10:23:03;;;;;;;2.80;1.30;;;;;;;;;;5056868;28;20238;-77
2022/09/02 10:25:34;;;;;;;2.60;1.30;;;;;;;;;;5055949;28;20249;-75
2022/09/02 10:28:08;;;;;;;3.58;1.40;;;;;;;;;;5056770;28;20670;-75
2022/09/02 10:30:41;;;;;;;3.28;1.27;;;;;;;;;;5056310;28;20583;-75
2022/09/02 10:33:17;;;;;;;3.58;1.50;;;;;;;;;;5056420;28;20655;-76
2022/09/02 10:35:46;;;;;;;3.60;1.30;;;;;;;;;;5055971;28;20547;-75
2022/09/02 10:38:30;;;;;;;1.70;1.30;;;;;;;;;;5056258;28;20218;-75
2022/09/02 10:41:00;;;;;;;2.58;1.20;;;;;;;;;;5054136;28;20310;-73
2022/09/02 10:43:45;;;;;;;1.40;1.30;;;;;;;;;;5055937;28;20184;-75
2022/09/02 10:46:19;;;;;;;2.88;1.30;;;;;;;;;;5055935;28;20655;-75
2022/09/02 10:48:58;;;;;;;5.47;1.52;;;;;;;;;;5055471;28;20195;-75
2022/09/02 10:51:32;;;;;;;4.25;1.30;;;;;;;;;;5055592;28;20761;-75
2022/09/02 10:54:09;;;;;;;1.40;1.30;;;;;;;;;;5055686;28;20192;-75
2022/09/02 10:56:41;;;;;;;2.67;1.33;;;;;;;;;;5055715;28;20186;-75
2022/09/02 10:59:11;;;;;;;3.92;1.35;;;;;;;;;;5055666;28;20556;-76
2022/09/02 11:01:43;;;;;;;2.67;1.40;;;;;;;;;;5055496;28;20711;-76
2022/09/02 11:04:17;;;;;;;4.18;1.17;;;;;;;;;;5055471;28;20655;-76
2022/09/02 11:06:52;;;;;;;1.80;1.25;;;;;;;;;;5055486;28;20187;-76
2022/09/02 11:09:38;;;;;;;1.23;1.13;;;;;;;;;;5055808;28;20305;-76
2022/09/02 11:12:08;;;;;;;1.52;1.33;;;;;;;;;;5055246;28;20264;-76
2022/09/02 11:14:43;;;;;;;2.30;1.25;;;;;;;;;;5055988;28;20211;-75
2022/09/02 11:17:18;;;;;;;1.98;1.27;;;;;;;;;;5056256;28;20214;-76
2022/09/02 11:19:50;;;;;;;1.40;1.30;;;;;;;;;;5054867;28;20227;-76
2022/09/02 11:22:23;;;;;;;1.92;1.20;;;;;;;;;;5055148;28;20202;-76
2022/09/02 11:24:59;;;;;;;2.20;1.30;;;;;;;;;;5054747;28;20184;-76
2022/09/02 11:27:32;;;;;;;2.80;1.38;;;;;;;;;;5055094;28;20588;-76
2022/09/02 11:30:13;;;;;;;1.60;1.23;;;;;;;;;;5055034;28;20237;-76
2022/09/02 11:32:44;;;;;;;2.05;1.50;;;;;;;;;;5054642;28;20199;-76
2022/09/02 11:35:17;;;;;;;2.50;1.35;;;;;;;;;;5054890;28;20606;-75
2022/09/02 11:37:48;;;;;;;1.60;1.23;;;;;;;;;;5054549;28;20191;-76
2022/09/02 11:40:19;;;;;;;2.00;1.40;;;;;;;;;;5054801;28;20230;-76
2022/09/02 11:43:11;;;;;;;2.17;1.23;;;;;;;;;;5054775;28;20184;-75
2022/09/02 11:45:53;;;;;;;1.83;1.30;;;;;;;;;;5054710;28;20183;-75
2022/09/02 11:48:51;;;;;;;3.20;1.25;;;;;;;;;;5054701;28;20561;-76
2022/09/02 11:51:43;;;;;;;3.30;1.30;;;;;;;;;;5054254;28;20277;-75
2022/09/02 11:54:15;;;;;;;4.50;1.40;;;;;;;;;;5016510;28;20208;-76
2022/09/02 11:56:46;;;;;;;2.30;1.30;;;;;;;;;;5054179;28;20266;-76
2022/09/02 11:59:20;;;;;;;3.13;1.25;;;;;;;;;;5054563;28;20209;-75
2022/09/02 12:01:50;;;;;;;1.63;1.30;;;;;;;;;;5054366;28;20206;-76
2022/09/02 12:04:20;;;;;;;2.53;1.33;;;;;;;;;;5054272;28;20248;-76
2022/09/02 12:07:24;;;;;;;1.42;1.20;;;;;;;;;;5053853;28;20629;-75
2022/09/02 12:10:04;;;;;;;1.50;1.00;;;;;;;;;;5054173;28;20223;-76
2022/09/02 12:12:54;;;;;;;2.22;1.08;;;;;;;;;;5053796;28;20210;-77
2022/09/02 12:15:23;;;;;;;3.17;1.38;;;;;;;;;;5053608;28;20247;-76
2022/09/02 12:18:09;;;;;;;1.10;1.00;;;;;;;;;;5054105;28;20210;-76
2022/09/02 12:21:01;;;;;;;2.47;1.20;;;;;;;;;;5052979;28;20233;-76
2022/09/02 12:23:48;;;;;;;2.35;1.40;;;;;;;;;;5053789;28;20194;-76
2022/09/02 12:26:19;;;;;;;3.72;1.50;;;;;;;;;;5053627;28;20218;-76
2022/09/02 12:28:48;;;;;;;3.25;1.23;;;;;;;;;;5054205;28;20211;-75
2022/09/02 12:31:19;;;;;;;2.53;1.23;;;;;;;;;;5053071;28;20223;-76
2022/09/02 12:33:50;;;;;;;1.75;1.40;;;;;;;;;;5053847;28;20650;-76
2022/09/02 12:36:38;;;;;;;3.13;1.30;;;;;;;;;;5053091;28;20227;-76
2022/09/02 12:39:22;;;;;;;2.80;1.50;;;;;;;;;;5053466;28;20209;-75
2022/09/02 12:41:55;;;;;;;2.63;1.20;;;;;;;;;;5033314;28;20203;-75
2022/09/02 12:44:27;;;;;;;4.78;1.30;;;;;;;;;;5033502;28;20196;-76
2022/09/02 12:46:59;;;;;;;3.65;1.30;;;;;;;;;;5033844;28;20679;-76
2022/09/02 12:49:34;;;;;;;3.20;1.15;;;;;;;;;;5033264;28;20198;-75
2022/09/02 12:52:03;;;;;;;2.65;1.20;;;;;;;;;;5033747;28;20191;-75
2022/09/02 12:54:36;;;;;;;2.88;1.15;;;;;;;;;;5033471;28;20211;-76
2022/09/02 12:57:07;;;;;;;2.15;1.40;;;;;;;;;;5033575;28;20208;-76
2022/09/02 12:59:36;;;;;;;5.53;1.30;;;;;;;;;;5031849;28;20195;-75
2022/09/02 13:02:11;;;;;;;2.22;1.40;;;;;;;;;;5031839;28;20207;-75
2022/09/02 13:04:43;;;;;;;1.80;1.40;;;;;;;;;;5031717;28;20291;-75
2022/09/02 13:07:28;;;;;;;2.28;1.60;;;;;;;;;;5031721;28;20184;-75
2022/09/02 13:10:28;;;;;;;3.05;1.35;;;;;;;;;;5031575;28;20235;-74
2022/09/02 13:13:27;;;;;;;1.98;1.15;;;;;;;;;;5031513;28;20211;-76
2022/09/02 13:16:05;;;;;;;3.20;1.20;;;;;;;;;;5031768;28;20208;-76
2022/09/02 13:19:06;;;;;;;4.00;1.23;;;;;;;;;;5032989;28;20188;-78
2022/09/02 13:21:51;;;;;;;1.90;1.35;;;;;;;;;;5031302;28;20231;-75
2022/09/02 13:24:39;;;;;;;2.55;1.30;;;;;;;;;;5031700;28;20621;-76
2022/09/02 13:27:28;;;;;;;1.35;1.00;;;;;;;;;;5031478;28;20203;-76
2022/09/02 13:30:05;;;;;;;1.40;1.00;;;;;;;;;;5028203;28;20935;-77
2022/09/02 13:32:34;;;;;;;3.03;1.30;;;;;;;;;;5031832;28;20195;-75
2022/09/02 13:35:04;;;;;;;1.45;1.13;;;;;;;;;;5034672;28;20204;-76
2022/09/02 13:37:34;;;;;;;1.73;1.17;;;;;;;;;;5035313;28;20576;-75
2022/09/02 13:40:06;;;;;;;1.67;1.23;;;;;;;;;;5034599;28;20323;-76
2022/09/02 13:42:35;;;;;;;2.10;1.13;;;;;;;;;;5035697;28;20184;-75
2022/09/02 13:45:13;;;;;;;5.00;1.20;;;;;;;;;;5035242;28;20208;-76
2022/09/02 13:47:45;;;;;;;1.85;1.23;;;;;;;;;;5035586;28;20183;-75
2022/09/02 13:50:15;;;;;;;3.47;1.20;;;;;;;;;;5035054;28;20223;-76
2022/09/02 13:52:45;;;;;;;2.15;1.10;;;;;;;;;;5034667;28;20242;-76
2022/09/02 13:55:34;;;;;;;1.33;1.00;;;;;;;;;;5034920;28;20669;-75
2022/09/02 13:58:04;;;;;;;1.67;1.00;;;;;;;;;;5034709;28;20214;-75
2022/09/02 14:00:34;;;;;;;7.25;1.10;;;;;;;;;;5035346;28;20220;-75
2022/09/02 14:03:05;;;;;;;3.25;1.35;;;;;;;;;;5035046;28;20215;-75
2022/09/02 14:05:35;;;;;;;2.67;1.23;;;;;;;;;;5035217;28;20239;-76
2022/09/02 14:08:05;;;;;;;1.33;1.00;;;;;;;;;;5035126;28;20204;-76
2022/09/02 14:10:37;;;;;;;1.52;1.30;;;;;;;;;;5035350;28;20220;-76
2022/09/02 14:13:07;;;;;;;3.78;1.20;;;;;;;;;;5034594;28;20238;-76
2022/09/02 14:15:37;;;;;;;3.58;1.30;;;;;;;;;;5035209;28;20619;-76
2022/09/02 14:18:13;;;;;;;2.13;1.40;;;;;;;;;;5036006;28;20228;-76
2022/09/02 14:20:57;;;;;;;4.35;1.30;;;;;;;;;;5036581;28;20756;-76
2022/09/02 14:23:26;;;;;;;3.53;1.27;;;;;;;;;;5036375;28;20669;-76
2022/09/02 14:25:56;;;;;;;1.85;1.20;;;;;;;;;;5036013;28;20207;-76
2022/09/02 14:28:25;;;;;;;2.38;1.20;;;;;;;;;;5035857;28;20203;-76
2022/09/02 14:31:00;;;;;;;2.90;1.20;;;;;;;;;;5035493;28;20228;-76
2022/09/02 14:33:37;;;;;;;2.47;1.30;;;;;;;;;;5035729;28;20214;-76
2022/09/02 14:36:07;;;;;;;1.30;1.20;;;;;;;;;;5035871;28;20184;-76
2022/09/02 14:38:37;;;;;;;2.42;1.30;;;;;;;;;;5035787;28;20273;-75
2022/09/02 14:41:09;;;;;;;6.18;1.60;;;;;;;;;;5036293;28;20219;-76
2022/09/02 14:43:43;;;;;;;4.20;1.30;;;;;;;;;;5035471;28;20194;-76
2022/09/02 14:46:22;;;;;;;1.58;1.40;;;;;;;;;;5035138;28;20188;-76
2022/09/02 14:48:54;;;;;;;1.58;1.30;;;;;;;;;;5035595;28;20206;-75
2022/09/02 14:51:23;;;;;;;3.17;1.40;;;;;;;;;;5035253;28;20238;-75
2022/09/02 14:53:52;;;;;;;3.88;1.38;;;;;;;;;;5035576;28;20208;-75
2022/09/02 14:56:35;;;;;;;2.22;1.30;;;;;;;;;;5035386;28;20234;-76
2022/09/02 14:59:04;;;;;;;3.58;1.40;;;;;;;;;;5035094;28;20576;-76
2022/09/02 15:01:38;;;;;;;1.30;1.20;;;;;;;;;;5035485;28;20251;-76
2022/09/02 15:04:06;;;;;;;3.67;1.20;;;;;;;;;;5035166;28;20551;-76
2022/09/02 15:06:35;;;;;;;3.45;1.40;;;;;;;;;;5043321;28;20192;-76
2022/09/02 15:09:03;;;;;;;2.30;1.30;;;;;;;;;;5055032;28;20203;-76
2022/09/02 15:11:32;;;;;;;1.73;1.30;;;;;;;;;;5054889;28;20234;-76
2022/09/02 15:14:00;;;;;;;2.10;1.42;;;;;;;;;;5055268;28;20191;-76
2022/09/02 15:16:29;;;;;;;2.17;1.25;;;;;;;;;;5055114;28;20230;-76
2022/09/02 15:18:59;;;;;;;2.63;1.30;;;;;;;;;;5055533;28;20276;-75